Westgard — PDBQ — position and weather

sailwx.info

Track history (hours):
 
Tides and Currents Weather Stations Pressure Air Temp Water Temp Dewpoint Dewpoint Depression Visibility Wind Speed Wind Dir Waves Ship Positions

Westgard

Last reported at 2017-Aug-23 22:40 UTC. Time now 2017-Aug-23 23:25 UTC.
Position N 49°58' W 005°41'.

Length 89 m; draft 5.2 m.

Type: Ship. MMSI: 246457000.

Date/timePositionNaut miles runAvg speedWind from/ knotsBaromVisibWave heightAir tempDewpointWater temp
2017-Aug-23 22:40N 49°58' W 005°41'411.1
2017-Aug-23 22:20N 49°57' W 005°35'510.7
2017-Aug-23 21:52N 49°56' W 005°27'1210.6
2017-Aug-23 20:42N 49°55' W 005°08'410.1
2017-Aug-23 20:21N 49°56' W 005°03'610.0
2017-Aug-23 19:42N 49°57' W 004°53'2 9.8
2017-Aug-23 19:29N 49°57' W 004°50'5 9.7
2017-Aug-23 19:00N 49°58' W 004°43'5 9.6
2017-Aug-23 18:29N 49°59' W 004°35'4 9.4
2017-Aug-23 18:00N 49°60' W 004°28'5 9.6
2017-Aug-23 17:27N 50°01' W 004°20'4 9.8
2017-Aug-23 17:00N 50°01' W 004°13'510.2
2017-Aug-23 16:30N 50°02' W 004°05'510.8
2017-Aug-23 16:00N 50°03' W 003°57'611.4
2017-Aug-23 15:30N 50°03' W 003°48'612.1
2017-Aug-23 15:00N 50°04' W 003°39'1312.8
2017-Aug-23 14:00N 50°07' W 003°19'612.5
2017-Aug-23 13:30N 50°08' W 003°10'612.2
2017-Aug-23 13:00N 50°10' W 003°01'611.7
2017-Aug-23 12:29N 50°11' W 002°51'39 5.5
2017-Aug-23 05:25N 50°19' W 001°52'511.9
2017-Aug-23 05:00N 50°20' W 001°45'812.7
2017-Aug-23 04:24N 50°22' W 001°33'513.5
2017-Aug-23 04:00N 50°23' W 001°24'4113.8
2017-Aug-23 01:04N 50°30' W 000°22'112.4
2017-Aug-23 01:01N 50°30' W 000°21'612.0
2017-Aug-23 00:30N 50°31' W 000°11'611.3
2017-Aug-23 00:00N 50°32' W 000°02'510.5
2017-Aug-22 23:30N 50°33' E 000°06'5 9.9
2017-Aug-22 23:00N 50°34' E 000°13'5 9.3
2017-Aug-22 22:30N 50°36' E 000°20'4 8.8
2017-Aug-22 22:01N 50°37' E 000°26'4 8.6
2017-Aug-22 21:30N 50°39' E 000°33'4 9.0
2017-Aug-22 21:00N 50°41' E 000°39'5 9.9
2017-Aug-22 20:30N 50°44' E 000°45'510.9
2017-Aug-22 20:00N 50°47' E 000°53'1812.5
2017-Aug-22 18:34N 50°58' E 001°15'113.7
2017-Aug-22 18:29N 50°59' E 001°16'713.3
2017-Aug-22 17:59N 51°03' E 001°24'612.8
2017-Aug-22 17:30N 51°07' E 001°32'611.3
2017-Aug-22 17:00N 51°11' E 001°39'510.9
2017-Aug-22 16:30N 51°14' E 001°45'510.4
2017-Aug-22 16:00N 51°18' E 001°50'5 9.8
2017-Aug-22 15:31N 51°22' E 001°55'5 9.4
2017-Aug-22 15:00N 51°26' E 001°60'5 9.1
2017-Aug-22 14:29N 51°30' E 002°04'5 8.9
2017-Aug-22 13:56N 51°33' E 002°10'4 9.0
2017-Aug-22 13:29N 51°36' E 002°14'7111.6
2017-Aug-22 07:23N 52°32' E 003°25'511.8
2017-Aug-22 06:58N 52°36' E 003°30'711.2
2017-Aug-22 06:19N 52°42' E 003°38'310.7
2017-Aug-22 06:00N 52°44' E 003°42'710.4
2017-Aug-22 05:19N 52°50' E 003°49'310.1
2017-Aug-22 04:59N 52°52' E 003°53'5 9.9
2017-Aug-22 04:30N 52°56' E 003°58'4410.5
2017-Aug-22 00:17N 53°29' E 004°46'412.2
2017-Aug-21 23:56N 53°31' E 004°53'12510.8
2017-Aug-21 12:23N 54°00' E 008°19'611.3
2017-Aug-21 11:50N 53°59' E 008°29'310.3
2017-Aug-21 11:30N 53°58' E 008°35'4 8.6
2017-Aug-21 11:00N 53°55' E 008°41'4 8.7
2017-Aug-21 10:30N 53°52' E 008°45'4 7.8
2017-Aug-21 10:00N 53°51' E 008°51'4 8.2
2017-Aug-21 09:30N 53°51' E 008°58'4 8.4
2017-Aug-21 09:00N 53°53' E 009°04'3 5.6
2017-Aug-21 08:30N 53°54' E 009°09'0 0.4
2017-Aug-21 08:00N 53°54' E 009°09'0 0.6
2017-Aug-21 07:30N 53°54' E 009°09'0 0.0
2017-Aug-21 07:00N 53°54' E 009°09'0 0.0
2017-Aug-21 06:30N 53°54' E 009°09'0 0.3
2017-Aug-21 06:00N 53°54' E 009°09'4 7.0
2017-Aug-21 05:30N 53°57' E 009°14'4 7.9
2017-Aug-21 05:00N 53°60' E 009°17'48 6.6
2017-Aug-20 21:43N 54°31' E 010°20'210.2
2017-Aug-20 21:29N 54°32' E 010°24'510.1
2017-Aug-20 21:00N 54°33' E 010°32'5 9.9
2017-Aug-20 20:30N 54°35' E 010°40'5 9.8
2017-Aug-20 20:01N 54°35' E 010°48'5 9.7
2017-Aug-20 19:31N 54°36' E 010°57'5 9.6
2017-Aug-20 19:00N 54°36' E 011°05'5 9.3
2017-Aug-20 18:30N 54°35' E 011°13'5 9.2
2017-Aug-20 18:00N 54°34' E 011°21'5 9.0
2017-Aug-20 17:30N 54°32' E 011°28'8 9.0
2017-Aug-20 16:36N 54°30' E 011°42'1 9.1
2017-Aug-20 16:30N 54°30' E 011°43'4 8.9
2017-Aug-20 16:00N 54°30' E 011°51'5 9.2
2017-Aug-20 15:30N 54°30' E 011°59'12 8.4
2017-Aug-20 14:02N 54°37' E 012°16'010.0
2017-Aug-20 14:00N 54°37' E 012°17'5 9.9
2017-Aug-20 13:31N 54°40' E 012°24'52 9.8
2017-Aug-20 08:12N 55°02' E 013°45'2 9.9
2017-Aug-20 08:00N 55°03' E 013°48'5 9.8
2017-Aug-20 07:30N 55°05' E 013°56'5 9.7
2017-Aug-20 07:00N 55°07' E 014°04'5 9.6
2017-Aug-20 06:30N 55°10' E 014°10'5 9.9
2017-Aug-20 06:00N 55°13' E 014°17'5 9.9
2017-Aug-20 05:30N 55°17' E 014°23'510.0
2017-Aug-20 05:00N 55°20' E 014°29'510.2
2017-Aug-20 04:30N 55°24' E 014°35'510.2
2017-Aug-20 04:00N 55°28' E 014°41'510.4
2017-Aug-20 03:30N 55°30' E 014°50'1110.2
2017-Aug-20 02:24N 55°35' E 015°07'410.0
2017-Aug-20 02:00N 55°37' E 015°13'5 9.8
2017-Aug-20 01:30N 55°40' E 015°21'5 9.7
2017-Aug-20 01:01N 55°42' E 015°28'5 9.9
2017-Aug-20 00:30N 55°44' E 015°36'510.0
2017-Aug-20 00:00N 55°47' E 015°44'5 9.8
2017-Aug-19 23:31N 55°50' E 015°51'5 9.8
2017-Aug-19 23:00N 55°52' E 015°58'5 9.9
2017-Aug-19 22:30N 55°55' E 016°06'5 9.7
2017-Aug-19 22:00N 55°57' E 016°13'5 9.4
2017-Aug-19 21:30N 55°60' E 016°20'5 9.3
2017-Aug-19 21:00N 56°02' E 016°27'5 9.5
2017-Aug-19 20:31N 56°05' E 016°34'16 9.3
2017-Aug-19 18:49N 56°15' E 016°56'145 9.6
2017-Aug-19 03:42N 57°56' E 020°08'210.5
2017-Aug-19 03:30N 57°58' E 020°10'3210.4
2017-Aug-19 00:24N 58°22' E 020°50'410.3
2017-Aug-19 00:00N 58°25' E 020°56'510.3
2017-Aug-18 23:29N 58°29' E 021°02'710.5
2017-Aug-18 22:47N 58°35' E 021°12'1410.5
2017-Aug-18 21:27N 58°45' E 021°30'510.3
2017-Aug-18 20:59N 58°49' E 021°35'610.5
2017-Aug-18 20:25N 58°53' E 021°43'410.3
2017-Aug-18 20:00N 58°57' E 021°48'5 9.8
2017-Aug-18 19:30N 59°00' E 021°54'510.0
2017-Aug-18 19:00N 59°04' E 022°01'5 9.8
2017-Aug-18 18:30N 59°08' E 022°07'510.0
2017-Aug-18 18:00N 59°12' E 022°13'510.0
2017-Aug-18 17:30N 59°15' E 022°21'510.4
2017-Aug-18 17:00N 59°17' E 022°30'510.3
2017-Aug-18 16:30N 59°19' E 022°40'510.2
2017-Aug-18 16:00N 59°21' E 022°49'510.3
2017-Aug-18 15:30N 59°23' E 022°58'510.2
2017-Aug-18 15:00N 59°25' E 023°07'510.1
2017-Aug-18 14:30N 59°27' E 023°17'1010.1
2017-Aug-18 13:30N 59°30' E 023°35'510.4
2017-Aug-18 13:00N 59°33' E 023°44'510.6
2017-Aug-18 12:30N 59°34' E 023°54'510.7
2017-Aug-18 12:00N 59°37' E 024°04'510.5
2017-Aug-18 11:30N 59°38' E 024°14'510.5
2017-Aug-18 11:00N 59°41' E 024°23'510.4
2017-Aug-18 10:30N 59°42' E 024°33'510.2
2017-Aug-18 10:00N 59°44' E 024°42'5 9.8
2017-Aug-18 09:30N 59°47' E 024°50'510.0
2017-Aug-18 09:00N 59°49' E 024°59'510.1
2017-Aug-18 08:30N 59°51' E 025°08'510.2
2017-Aug-18 08:00N 59°52' E 025°18'510.5
2017-Aug-18 07:30N 59°53' E 025°28'510.6
2017-Aug-18 07:00N 59°55' E 025°39'510.4
2017-Aug-18 06:30N 59°56' E 025°49'510.4
2017-Aug-18 06:00N 59°57' E 025°59'510.6
2017-Aug-18 05:30N 59°58' E 026°09'510.5
2017-Aug-18 05:00N 59°59' E 026°19'510.3
2017-Aug-18 04:30N 60°01' E 026°29'510.3
2017-Aug-18 04:00N 60°01' E 026°40'510.5
2017-Aug-18 03:31N 60°01' E 026°50'510.4
2017-Aug-18 03:00N 59°60' E 027°00'510.1
2017-Aug-18 02:30N 60°02' E 027°10'510.7
2017-Aug-18 02:00N 60°04' E 027°19'510.6
2017-Aug-18 01:30N 60°07' E 027°28'510.8
2017-Aug-18 01:01N 60°10' E 027°37'510.3
2017-Aug-18 00:30N 60°12' E 027°47'510.8
2017-Aug-18 00:00N 60°10' E 027°58'510.7
2017-Aug-17 23:30N 60°09' E 028°08'510.7
2017-Aug-17 23:00N 60°07' E 028°18'510.7
2017-Aug-17 22:30N 60°04' E 028°27'510.6
2017-Aug-17 22:00N 60°03' E 028°38'510.9
2017-Aug-17 21:30N 60°03' E 028°48'2110.6
2017-Aug-17 19:34N 60°01' E 029°30'110.7
2017-Aug-17 19:30N 60°01' E 029°31'510.8
2017-Aug-17 19:00N 59°60' E 029°41'4 8.6
2017-Aug-17 18:30N 59°56' E 029°47'1 0.1
2017-Aug-17 07:31N 59°56' E 029°46'0 0.0
2017-Aug-17 07:28N 59°56' E 029°46'0 0.0
2017-Aug-17 06:58N 59°56' E 029°46'0 0.0
2017-Aug-17 06:28N 59°56' E 029°46'0 0.0
2017-Aug-17 05:52N 59°56' E 029°46'0 0.0
2017-Aug-17 05:28N 59°56' E 029°46'0 0.0
2017-Aug-17 04:52N 59°56' E 029°46'0 0.0
2017-Aug-17 04:16N 59°56' E 029°46'0 0.0
2017-Aug-17 03:55N 59°56' E 029°46'0 0.0
2017-Aug-17 03:31N 59°56' E 029°46'0 0.0
2017-Aug-17 02:58N 59°56' E 029°46'0 0.0
2017-Aug-17 02:27N 59°56' E 029°46'0 0.0
2017-Aug-17 01:57N 59°56' E 029°46'0 0.0
2017-Aug-17 01:30N 59°56' E 029°46'0 0.0
2017-Aug-17 01:00N 59°56' E 029°46'0 0.0
2017-Aug-17 00:27N 59°56' E 029°46'0 0.0
2017-Aug-16 21:10N 59°56' E 029°46'0 0.0
2017-Aug-16 20:38N 59°56' E 029°46'0 0.0
2017-Aug-16 14:01N 59°56' E 029°47'0 4.1
2017-Aug-16 14:00N 59°56' E 029°47'3 6.8
2017-Aug-16 13:29N 59°59' E 029°44'612.6
2017-Aug-16 12:59N 60°01' E 029°32'611.1
2017-Aug-16 12:28N 60°02' E 029°20'612.6
2017-Aug-16 12:00N 60°02' E 029°09'611.6
2017-Aug-16 11:31N 60°02' E 028°57'5 9.3
2017-Aug-16 11:00N 60°02' E 028°48'611.4
2017-Aug-16 10:30N 60°02' E 028°37'612.0
2017-Aug-16 10:01N 60°03' E 028°25'510.3
2017-Aug-16 09:31N 60°06' E 028°17'611.3
2017-Aug-16 09:00N 60°08' E 028°06'510.1
2017-Aug-16 08:30N 60°10' E 027°56'510.0
2017-Aug-16 08:01N 60°10' E 027°46'611.8
2017-Aug-16 07:30N 60°08' E 027°36'5 9.5
2017-Aug-16 07:00N 60°05' E 027°28'611.1
2017-Aug-16 06:30N 60°02' E 027°18'611.0
2017-Aug-16 06:00N 59°60' E 027°09'612.1
2017-Aug-16 05:31N 59°59' E 026°57'5 9.5
2017-Aug-16 05:01N 59°59' E 026°47'510.6
2017-Aug-16 04:30N 59°59' E 026°37'511.0
2017-Aug-16 04:00N 59°58' E 026°26'511.0
2017-Aug-16 03:30N 59°56' E 026°15'611.3
2017-Aug-16 03:00N 59°55' E 026°05'611.6
2017-Aug-16 02:30N 59°54' E 025°53'611.1
2017-Aug-16 02:00N 59°52' E 025°42'611.2
2017-Aug-16 01:30N 59°51' E 025°32'5 9.9
2017-Aug-16 01:01N 59°50' E 025°22'612.0
2017-Aug-16 00:30N 59°49' E 025°10'510.3
2017-Aug-16 00:00N 59°48' E 025°00'611.6
2017-Aug-15 23:30N 59°46' E 024°49'611.3
2017-Aug-15 23:00N 59°45' E 024°38'510.9
2017-Aug-15 22:30N 59°44' E 024°27'611.2
2017-Aug-15 22:01N 59°43' E 024°17'713.7
2017-Aug-15 21:30N 59°42' E 024°03'510.5
2017-Aug-15 21:01N 59°41' E 023°53'510.1
2017-Aug-15 20:30N 59°41' E 023°43'510.9
2017-Aug-15 20:01N 59°41' E 023°32'611.0
2017-Aug-15 19:30N 59°40' E 023°21'510.9
2017-Aug-15 19:01N 59°40' E 023°11'510.8
2017-Aug-15 18:31N 59°40' E 022°60'510.9
2017-Aug-15 18:00N 59°39' E 022°49'611.1
2017-Aug-15 17:31N 59°40' E 022°38'611.0
2017-Aug-15 17:00N 59°39' E 022°27'611.2
2017-Aug-15 16:30N 59°39' E 022°16'611.4
2017-Aug-15 16:01N 59°38' E 022°05'611.4
2017-Aug-15 15:30N 59°38' E 021°54'611.5
2017-Aug-15 15:00N 59°38' E 021°42'611.4
2017-Aug-15 14:31N 59°38' E 021°31'611.4
2017-Aug-15 14:00N 59°39' E 021°20'611.6
2017-Aug-15 13:30N 59°39' E 021°08'611.6
2017-Aug-15 13:00N 59°40' E 020°57'611.6
2017-Aug-15 12:30N 59°40' E 020°46'611.6
2017-Aug-15 12:01N 59°41' E 020°34'611.1
2017-Aug-15 11:30N 59°44' E 020°25'611.4
2017-Aug-15 11:00N 59°45' E 020°14'611.6
2017-Aug-15 10:30N 59°45' E 020°02'611.7
2017-Aug-15 10:00N 59°45' E 019°50'510.6
2017-Aug-15 09:30N 59°47' E 019°41'611.3
2017-Aug-15 09:01N 59°51' E 019°34'611.2
2017-Aug-15 08:30N 59°56' E 019°27'611.2
2017-Aug-15 08:00N 59°60' E 019°19'611.2
2017-Aug-15 07:30N 60°04' E 019°11'611.4
2017-Aug-15 07:00N 60°08' E 019°04'510.8
2017-Aug-15 06:30N 60°13' E 019°01'611.2
2017-Aug-15 06:00N 60°19' E 018°60'611.3
2017-Aug-15 05:30N 60°25' E 018°58'611.5
2017-Aug-15 05:00N 60°30' E 018°57'611.4
2017-Aug-15 04:30N 60°36' E 018°53'611.3
2017-Aug-15 04:01N 60°41' E 018°50'611.3
2017-Aug-15 03:30N 60°47' E 018°47'611.3
2017-Aug-15 03:00N 60°52' E 018°44'611.2
2017-Aug-15 02:30N 60°58' E 018°41'611.2
2017-Aug-15 02:00N 61°03' E 018°38'612.0
2017-Aug-15 01:31N 61°09' E 018°34'510.5
2017-Aug-15 01:00N 61°14' E 018°31'611.8
2017-Aug-15 00:30N 61°19' E 018°27'510.0
2017-Aug-15 00:00N 61°24' E 018°23'510.9
2017-Aug-14 23:30N 61°29' E 018°19'611.0
2017-Aug-14 23:00N 61°34' E 018°15'510.9
2017-Aug-14 22:30N 61°39' E 018°11'511.0
2017-Aug-14 22:00N 61°44' E 018°07'612.0
2017-Aug-14 21:30N 61°50' E 018°03'510.8
2017-Aug-14 21:00N 61°55' E 017°59'510.2
2017-Aug-14 20:30N 62°00' E 017°56'612.1
2017-Aug-14 20:00N 62°06' E 017°52'510.0
2017-Aug-14 19:30N 62°11' E 017°49'5 9.8
2017-Aug-14 19:00N 62°15' E 017°44'  
Track history (hours):
 
Tides and Currents Weather Stations Pressure Air Temp Water Temp Dewpoint Dewpoint Depression Visibility Wind Speed Wind Dir Waves Ship Positions

Westgard

Last reported at 2017-Aug-23 22:40 UTC. Time now 2017-Aug-23 23:25 UTC.
Position N 49°58' W 005°41'.

Length 89 m; draft 5.2 m.

Type: Ship. MMSI: 246457000.

Date/timePositionNaut miles runAvg speedWind from/ knotsBaromVisibWave heightAir tempDewpointWater temp
2017-Aug-23 22:40N 49°58' W 005°41'411.1
2017-Aug-23 22:20N 49°57' W 005°35'510.7
2017-Aug-23 21:52N 49°56' W 005°27'1210.6
2017-Aug-23 20:42N 49°55' W 005°08'410.1
2017-Aug-23 20:21N 49°56' W 005°03'610.0
2017-Aug-23 19:42N 49°57' W 004°53'2 9.8
2017-Aug-23 19:29N 49°57' W 004°50'5 9.7
2017-Aug-23 19:00N 49°58' W 004°43'5 9.6
2017-Aug-23 18:29N 49°59' W 004°35'4 9.4
2017-Aug-23 18:00N 49°60' W 004°28'5 9.6
2017-Aug-23 17:27N 50°01' W 004°20'4 9.8
2017-Aug-23 17:00N 50°01' W 004°13'510.2
2017-Aug-23 16:30N 50°02' W 004°05'510.8
2017-Aug-23 16:00N 50°03' W 003°57'611.4
2017-Aug-23 15:30N 50°03' W 003°48'612.1
2017-Aug-23 15:00N 50°04' W 003°39'1312.8
2017-Aug-23 14:00N 50°07' W 003°19'612.5
2017-Aug-23 13:30N 50°08' W 003°10'612.2
2017-Aug-23 13:00N 50°10' W 003°01'611.7
2017-Aug-23 12:29N 50°11' W 002°51'39 5.5
2017-Aug-23 05:25N 50°19' W 001°52'511.9
2017-Aug-23 05:00N 50°20' W 001°45'812.7
2017-Aug-23 04:24N 50°22' W 001°33'513.5
2017-Aug-23 04:00N 50°23' W 001°24'4113.8
2017-Aug-23 01:04N 50°30' W 000°22'112.4
2017-Aug-23 01:01N 50°30' W 000°21'612.0
2017-Aug-23 00:30N 50°31' W 000°11'611.3
2017-Aug-23 00:00N 50°32' W 000°02'510.5
2017-Aug-22 23:30N 50°33' E 000°06'5 9.9
2017-Aug-22 23:00N 50°34' E 000°13'5 9.3
2017-Aug-22 22:30N 50°36' E 000°20'4 8.8
2017-Aug-22 22:01N 50°37' E 000°26'4 8.6
2017-Aug-22 21:30N 50°39' E 000°33'4 9.0
2017-Aug-22 21:00N 50°41' E 000°39'5 9.9
2017-Aug-22 20:30N 50°44' E 000°45'510.9
2017-Aug-22 20:00N 50°47' E 000°53'1812.5
2017-Aug-22 18:34N 50°58' E 001°15'113.7
2017-Aug-22 18:29N 50°59' E 001°16'713.3
2017-Aug-22 17:59N 51°03' E 001°24'612.8
2017-Aug-22 17:30N 51°07' E 001°32'611.3
2017-Aug-22 17:00N 51°11' E 001°39'510.9
2017-Aug-22 16:30N 51°14' E 001°45'510.4
2017-Aug-22 16:00N 51°18' E 001°50'5 9.8
2017-Aug-22 15:31N 51°22' E 001°55'5 9.4
2017-Aug-22 15:00N 51°26' E 001°60'5 9.1
2017-Aug-22 14:29N 51°30' E 002°04'5 8.9
2017-Aug-22 13:56N 51°33' E 002°10'4 9.0
2017-Aug-22 13:29N 51°36' E 002°14'7111.6
2017-Aug-22 07:23N 52°32' E 003°25'511.8
2017-Aug-22 06:58N 52°36' E 003°30'711.2
2017-Aug-22 06:19N 52°42' E 003°38'310.7
2017-Aug-22 06:00N 52°44' E 003°42'710.4
2017-Aug-22 05:19N 52°50' E 003°49'310.1
2017-Aug-22 04:59N 52°52' E 003°53'5 9.9
2017-Aug-22 04:30N 52°56' E 003°58'4410.5
2017-Aug-22 00:17N 53°29' E 004°46'412.2
2017-Aug-21 23:56N 53°31' E 004°53'12510.8
2017-Aug-21 12:23N 54°00' E 008°19'611.3
2017-Aug-21 11:50N 53°59' E 008°29'310.3
2017-Aug-21 11:30N 53°58' E 008°35'4 8.6
2017-Aug-21 11:00N 53°55' E 008°41'4 8.7
2017-Aug-21 10:30N 53°52' E 008°45'4 7.8
2017-Aug-21 10:00N 53°51' E 008°51'4 8.2
2017-Aug-21 09:30N 53°51' E 008°58'4 8.4
2017-Aug-21 09:00N 53°53' E 009°04'3 5.6
2017-Aug-21 08:30N 53°54' E 009°09'0 0.4
2017-Aug-21 08:00N 53°54' E 009°09'0 0.6
2017-Aug-21 07:30N 53°54' E 009°09'0 0.0
2017-Aug-21 07:00N 53°54' E 009°09'0 0.0
2017-Aug-21 06:30N 53°54' E 009°09'0 0.3
2017-Aug-21 06:00N 53°54' E 009°09'4 7.0
2017-Aug-21 05:30N 53°57' E 009°14'4 7.9
2017-Aug-21 05:00N 53°60' E 009°17'48 6.6
2017-Aug-20 21:43N 54°31' E 010°20'210.2
2017-Aug-20 21:29N 54°32' E 010°24'510.1
2017-Aug-20 21:00N 54°33' E 010°32'5 9.9
2017-Aug-20 20:30N 54°35' E 010°40'5 9.8
2017-Aug-20 20:01N 54°35' E 010°48'5 9.7
2017-Aug-20 19:31N 54°36' E 010°57'5 9.6
2017-Aug-20 19:00N 54°36' E 011°05'5 9.3
2017-Aug-20 18:30N 54°35' E 011°13'5 9.2
2017-Aug-20 18:00N 54°34' E 011°21'5 9.0
2017-Aug-20 17:30N 54°32' E 011°28'8 9.0
2017-Aug-20 16:36N 54°30' E 011°42'1 9.1
2017-Aug-20 16:30N 54°30' E 011°43'4 8.9
2017-Aug-20 16:00N 54°30' E 011°51'5 9.2
2017-Aug-20 15:30N 54°30' E 011°59'12 8.4
2017-Aug-20 14:02N 54°37' E 012°16'010.0
2017-Aug-20 14:00N 54°37' E 012°17'5 9.9
2017-Aug-20 13:31N 54°40' E 012°24'52 9.8
2017-Aug-20 08:12N 55°02' E 013°45'2 9.9
2017-Aug-20 08:00N 55°03' E 013°48'5 9.8
2017-Aug-20 07:30N 55°05' E 013°56'5 9.7
2017-Aug-20 07:00N 55°07' E 014°04'5 9.6
2017-Aug-20 06:30N 55°10' E 014°10'5 9.9
2017-Aug-20 06:00N 55°13' E 014°17'5 9.9
2017-Aug-20 05:30N 55°17' E 014°23'510.0
2017-Aug-20 05:00N 55°20' E 014°29'510.2
2017-Aug-20 04:30N 55°24' E 014°35'510.2
2017-Aug-20 04:00N 55°28' E 014°41'510.4
2017-Aug-20 03:30N 55°30' E 014°50'1110.2
2017-Aug-20 02:24N 55°35' E 015°07'410.0
2017-Aug-20 02:00N 55°37' E 015°13'5 9.8
2017-Aug-20 01:30N 55°40' E 015°21'5 9.7
2017-Aug-20 01:01N 55°42' E 015°28'5 9.9
2017-Aug-20 00:30N 55°44' E 015°36'510.0
2017-Aug-20 00:00N 55°47' E 015°44'5 9.8
2017-Aug-19 23:31N 55°50' E 015°51'5 9.8
2017-Aug-19 23:00N 55°52' E 015°58'5 9.9
2017-Aug-19 22:30N 55°55' E 016°06'5 9.7
2017-Aug-19 22:00N 55°57' E 016°13'5 9.4
2017-Aug-19 21:30N 55°60' E 016°20'5 9.3
2017-Aug-19 21:00N 56°02' E 016°27'5 9.5
2017-Aug-19 20:31N 56°05' E 016°34'16 9.3
2017-Aug-19 18:49N 56°15' E 016°56'145 9.6
2017-Aug-19 03:42N 57°56' E 020°08'210.5
2017-Aug-19 03:30N 57°58' E 020°10'3210.4
2017-Aug-19 00:24N 58°22' E 020°50'410.3
2017-Aug-19 00:00N 58°25' E 020°56'510.3
2017-Aug-18 23:29N 58°29' E 021°02'710.5
2017-Aug-18 22:47N 58°35' E 021°12'1410.5
2017-Aug-18 21:27N 58°45' E 021°30'510.3
2017-Aug-18 20:59N 58°49' E 021°35'610.5
2017-Aug-18 20:25N 58°53' E 021°43'410.3
2017-Aug-18 20:00N 58°57' E 021°48'5 9.8
2017-Aug-18 19:30N 59°00' E 021°54'510.0
2017-Aug-18 19:00N 59°04' E 022°01'5 9.8
2017-Aug-18 18:30N 59°08' E 022°07'510.0
2017-Aug-18 18:00N 59°12' E 022°13'510.0
2017-Aug-18 17:30N 59°15' E 022°21'510.4
2017-Aug-18 17:00N 59°17' E 022°30'510.3
2017-Aug-18 16:30N 59°19' E 022°40'510.2
2017-Aug-18 16:00N 59°21' E 022°49'510.3
2017-Aug-18 15:30N 59°23' E 022°58'510.2
2017-Aug-18 15:00N 59°25' E 023°07'510.1
2017-Aug-18 14:30N 59°27' E 023°17'1010.1
2017-Aug-18 13:30N 59°30' E 023°35'510.4
2017-Aug-18 13:00N 59°33' E 023°44'510.6
2017-Aug-18 12:30N 59°34' E 023°54'510.7
2017-Aug-18 12:00N 59°37' E 024°04'510.5
2017-Aug-18 11:30N 59°38' E 024°14'510.5
2017-Aug-18 11:00N 59°41' E 024°23'510.4
2017-Aug-18 10:30N 59°42' E 024°33'510.2
2017-Aug-18 10:00N 59°44' E 024°42'5 9.8
2017-Aug-18 09:30N 59°47' E 024°50'510.0
2017-Aug-18 09:00N 59°49' E 024°59'510.1
2017-Aug-18 08:30N 59°51' E 025°08'510.2
2017-Aug-18 08:00N 59°52' E 025°18'510.5
2017-Aug-18 07:30N 59°53' E 025°28'510.6
2017-Aug-18 07:00N 59°55' E 025°39'510.4
2017-Aug-18 06:30N 59°56' E 025°49'510.4
2017-Aug-18 06:00N 59°57' E 025°59'510.6
2017-Aug-18 05:30N 59°58' E 026°09'510.5
2017-Aug-18 05:00N 59°59' E 026°19'510.3
2017-Aug-18 04:30N 60°01' E 026°29'510.3
2017-Aug-18 04:00N 60°01' E 026°40'510.5
2017-Aug-18 03:31N 60°01' E 026°50'510.4
2017-Aug-18 03:00N 59°60' E 027°00'510.1
2017-Aug-18 02:30N 60°02' E 027°10'510.7
2017-Aug-18 02:00N 60°04' E 027°19'510.6
2017-Aug-18 01:30N 60°07' E 027°28'510.8
2017-Aug-18 01:01N 60°10' E 027°37'510.3
2017-Aug-18 00:30N 60°12' E 027°47'510.8
2017-Aug-18 00:00N 60°10' E 027°58'510.7
2017-Aug-17 23:30N 60°09' E 028°08'510.7
2017-Aug-17 23:00N 60°07' E 028°18'510.7
2017-Aug-17 22:30N 60°04' E 028°27'510.6
2017-Aug-17 22:00N 60°03' E 028°38'510.9
2017-Aug-17 21:30N 60°03' E 028°48'2110.6
2017-Aug-17 19:34N 60°01' E 029°30'110.7
2017-Aug-17 19:30N 60°01' E 029°31'510.8
2017-Aug-17 19:00N 59°60' E 029°41'4 8.6
2017-Aug-17 18:30N 59°56' E 029°47'1 0.1
2017-Aug-17 07:31N 59°56' E 029°46'0 0.0
2017-Aug-17 07:28N 59°56' E 029°46'0 0.0
2017-Aug-17 06:58N 59°56' E 029°46'0 0.0
2017-Aug-17 06:28N 59°56' E 029°46'0 0.0
2017-Aug-17 05:52N 59°56' E 029°46'0 0.0
2017-Aug-17 05:28N 59°56' E 029°46'0 0.0
2017-Aug-17 04:52N 59°56' E 029°46'0 0.0
2017-Aug-17 04:16N 59°56' E 029°46'0 0.0
2017-Aug-17 03:55N 59°56' E 029°46'0 0.0
2017-Aug-17 03:31N 59°56' E 029°46'0 0.0
2017-Aug-17 02:58N 59°56' E 029°46'0 0.0
2017-Aug-17 02:27N 59°56' E 029°46'0 0.0
2017-Aug-17 01:57N 59°56' E 029°46'0 0.0
2017-Aug-17 01:30N 59°56' E 029°46'0 0.0
2017-Aug-17 01:00N 59°56' E 029°46'0 0.0
2017-Aug-17 00:27N 59°56' E 029°46'0 0.0
2017-Aug-16 21:10N 59°56' E 029°46'0 0.0
2017-Aug-16 20:38N 59°56' E 029°46'0 0.0
2017-Aug-16 14:01N 59°56' E 029°47'0 4.1
2017-Aug-16 14:00N 59°56' E 029°47'3 6.8
2017-Aug-16 13:29N 59°59' E 029°44'612.6
2017-Aug-16 12:59N 60°01' E 029°32'611.1
2017-Aug-16 12:28N 60°02' E 029°20'612.6
2017-Aug-16 12:00N 60°02' E 029°09'611.6
2017-Aug-16 11:31N 60°02' E 028°57'5 9.3
2017-Aug-16 11:00N 60°02' E 028°48'611.4
2017-Aug-16 10:30N 60°02' E 028°37'612.0
2017-Aug-16 10:01N 60°03' E 028°25'510.3
2017-Aug-16 09:31N 60°06' E 028°17'611.3
2017-Aug-16 09:00N 60°08' E 028°06'510.1
2017-Aug-16 08:30N 60°10' E 027°56'510.0
2017-Aug-16 08:01N 60°10' E 027°46'611.8
2017-Aug-16 07:30N 60°08' E 027°36'5 9.5
2017-Aug-16 07:00N 60°05' E 027°28'611.1
2017-Aug-16 06:30N 60°02' E 027°18'611.0
2017-Aug-16 06:00N 59°60' E 027°09'612.1
2017-Aug-16 05:31N 59°59' E 026°57'5 9.5
2017-Aug-16 05:01N 59°59' E 026°47'510.6
2017-Aug-16 04:30N 59°59' E 026°37'511.0
2017-Aug-16 04:00N 59°58' E 026°26'511.0
2017-Aug-16 03:30N 59°56' E 026°15'611.3
2017-Aug-16 03:00N 59°55' E 026°05'611.6
2017-Aug-16 02:30N 59°54' E 025°53'611.1
2017-Aug-16 02:00N 59°52' E 025°42'611.2
2017-Aug-16 01:30N 59°51' E 025°32'5 9.9
2017-Aug-16 01:01N 59°50' E 025°22'612.0
2017-Aug-16 00:30N 59°49' E 025°10'510.3
2017-Aug-16 00:00N 59°48' E 025°00'611.6
2017-Aug-15 23:30N 59°46' E 024°49'611.3
2017-Aug-15 23:00N 59°45' E 024°38'510.9
2017-Aug-15 22:30N 59°44' E 024°27'611.2
2017-Aug-15 22:01N 59°43' E 024°17'713.7
2017-Aug-15 21:30N 59°42' E 024°03'510.5
2017-Aug-15 21:01N 59°41' E 023°53'510.1
2017-Aug-15 20:30N 59°41' E 023°43'510.9
2017-Aug-15 20:01N 59°41' E 023°32'611.0
2017-Aug-15 19:30N 59°40' E 023°21'510.9
2017-Aug-15 19:01N 59°40' E 023°11'510.8
2017-Aug-15 18:31N 59°40' E 022°60'510.9
2017-Aug-15 18:00N 59°39' E 022°49'611.1
2017-Aug-15 17:31N 59°40' E 022°38'611.0
2017-Aug-15 17:00N 59°39' E 022°27'611.2
2017-Aug-15 16:30N 59°39' E 022°16'611.4
2017-Aug-15 16:01N 59°38' E 022°05'611.4
2017-Aug-15 15:30N 59°38' E 021°54'611.5
2017-Aug-15 15:00N 59°38' E 021°42'611.4
2017-Aug-15 14:31N 59°38' E 021°31'611.4
2017-Aug-15 14:00N 59°39' E 021°20'611.6
2017-Aug-15 13:30N 59°39' E 021°08'611.6
2017-Aug-15 13:00N 59°40' E 020°57'611.6
2017-Aug-15 12:30N 59°40' E 020°46'611.6
2017-Aug-15 12:01N 59°41' E 020°34'611.1
2017-Aug-15 11:30N 59°44' E 020°25'611.4
2017-Aug-15 11:00N 59°45' E 020°14'611.6
2017-Aug-15 10:30N 59°45' E 020°02'611.7
2017-Aug-15 10:00N 59°45' E 019°50'510.6
2017-Aug-15 09:30N 59°47' E 019°41'611.3
2017-Aug-15 09:01N 59°51' E 019°34'611.2
2017-Aug-15 08:30N 59°56' E 019°27'611.2
2017-Aug-15 08:00N 59°60' E 019°19'611.2
2017-Aug-15 07:30N 60°04' E 019°11'611.4
2017-Aug-15 07:00N 60°08' E 019°04'510.8
2017-Aug-15 06:30N 60°13' E 019°01'611.2
2017-Aug-15 06:00N 60°19' E 018°60'611.3
2017-Aug-15 05:30N 60°25' E 018°58'611.5
2017-Aug-15 05:00N 60°30' E 018°57'611.4
2017-Aug-15 04:30N 60°36' E 018°53'611.3
2017-Aug-15 04:01N 60°41' E 018°50'611.3
2017-Aug-15 03:30N 60°47' E 018°47'611.3
2017-Aug-15 03:00N 60°52' E 018°44'611.2
2017-Aug-15 02:30N 60°58' E 018°41'611.2
2017-Aug-15 02:00N 61°03' E 018°38'612.0
2017-Aug-15 01:31N 61°09' E 018°34'510.5
2017-Aug-15 01:00N 61°14' E 018°31'611.8
2017-Aug-15 00:30N 61°19' E 018°27'510.0
2017-Aug-15 00:00N 61°24' E 018°23'510.9
2017-Aug-14 23:30N 61°29' E 018°19'611.0
2017-Aug-14 23:00N 61°34' E 018°15'510.9
2017-Aug-14 22:30N 61°39' E 018°11'511.0
2017-Aug-14 22:00N 61°44' E 018°07'612.0
2017-Aug-14 21:30N 61°50' E 018°03'510.8
2017-Aug-14 21:00N 61°55' E 017°59'510.2
2017-Aug-14 20:30N 62°00' E 017°56'612.1
2017-Aug-14 20:00N 62°06' E 017°52'510.0
2017-Aug-14 19:30N 62°11' E 017°49'5 9.8
2017-Aug-14 19:00N 62°15' E 017°44'  

Dump ship's entire track history